Time;durP1;ratioP1;P1;durP2;ratioP2;P2;SDS_P1;SDS_P2;PMS_P1;PMS_P2;Temp;Humidity;BMP_temperature;BMP_pressure;BME280_temperature;BME280_humidity;BME280_pressure;Samples;Min_cycle;Max_cycle;Signal;HPM_P1;HPM_P2
2022/12/04 00:01:13;;;;;;;;;;;;;;;18.94;34.02;95168.66;10437885;28;3223;-53
2022/12/04 00:06:23;;;;;;;;;;;;;;;18.91;34.09;95185.75;10422581;28;2788;-54
2022/12/04 00:11:25;;;;;;;;;;;;;;;18.91;34.03;95183.13;10438632;28;3174;-53
2022/12/04 00:16:25;;;;;;;;;;;;;;;18.87;34.18;95184.75;10439517;28;3218;-55
2022/12/04 00:21:26;;;;;;;;;;;;;;;18.82;34.14;95176.09;10433228;28;3279;-52
2022/12/04 00:26:27;;;;;;;;;;;;;;;18.80;34.19;95180.84;10425674;28;3332;-52
2022/12/04 00:31:28;;;;;;;;;;;;;;;18.77;33.96;95179.56;10431893;28;3193;-55
2022/12/04 00:36:28;;;;;;;;;;;;;;;18.74;34.10;95174.88;10433456;28;3130;-52
2022/12/04 00:41:29;;;;;;;;;;;;;;;18.73;34.24;95183.03;10421512;28;3201;-53
2022/12/04 00:46:29;;;;;;;;;;;;;;;18.73;34.20;95181.19;10436161;28;3074;-54
2022/12/04 00:51:30;;;;;;;;;;;;;;;18.67;34.26;95184.88;10446793;28;3440;-52
2022/12/04 00:56:30;;;;;;;;;;;;;;;18.68;34.18;95187.25;10428604;28;3187;-50
2022/12/04 01:01:30;;;;;;;;;;;;;;;18.64;34.09;95190.69;10442256;28;2665;-54
2022/12/04 01:06:31;;;;;;;;;;;;;;;18.62;34.20;95182.31;10432512;28;3178;-53
2022/12/04 01:11:32;;;;;;;;;;;;;;;18.61;34.15;95176.28;10452749;28;3106;-54
2022/12/04 01:16:33;;;;;;;;;;;;;;;18.58;34.20;95182.09;10429959;28;2684;-53
2022/12/04 01:21:34;;;;;;;;;;;;;;;18.59;34.16;95186.25;10431146;28;3162;-50
2022/12/04 01:26:34;;;;;;;;;;;;;;;18.57;34.21;95200.72;10429238;28;3142;-55
2022/12/04 01:31:37;;;;;;;;;;;;;;;18.54;34.34;95191.56;10434779;28;3159;-52
2022/12/04 01:36:37;;;;;;;;;;;;;;;18.49;34.22;95188.97;10424867;28;3178;-54
2022/12/04 01:41:37;;;;;;;;;;;;;;;18.49;33.91;95194.22;10433104;28;3111;-52
2022/12/04 01:46:39;;;;;;;;;;;;;;;18.48;34.22;95191.88;10435117;28;3198;-50
2022/12/04 01:51:40;;;;;;;;;;;;;;;18.47;34.30;95198.16;10439521;28;3135;-53
2022/12/04 01:56:42;;;;;;;;;;;;;;;18.45;34.25;95187.94;10425657;28;3094;-52
2022/12/04 02:01:43;;;;;;;;;;;;;;;18.44;34.44;95160.13;10446806;28;2779;-53
2022/12/04 02:06:43;;;;;;;;;;;;;;;18.42;34.24;95153.56;10437348;28;3234;-54
2022/12/04 02:11:56;;;;;;;;;;;;;;;18.41;34.29;95162.50;10436360;28;2727;-54
2022/12/04 02:17:14;;;;;;;;;;;;;;;18.39;34.24;95172.47;10429573;28;3115;-53
2022/12/04 02:22:37;;;;;;;;;;;;;;;18.38;34.17;95176.94;10436232;28;3227;-54
2022/12/04 02:27:37;;;;;;;;;;;;;;;18.39;34.28;95148.84;10442226;28;3066;-53
2022/12/04 02:32:41;;;;;;;;;;;;;;;18.39;34.39;95143.59;10431914;28;3156;-53
2022/12/04 02:38:04;;;;;;;;;;;;;;;18.38;34.46;95150.69;10434720;28;2712;-52
2022/12/04 02:43:11;;;;;;;;;;;;;;;18.37;34.40;95130.78;10430213;28;3790;-51
2022/12/04 02:48:12;;;;;;;;;;;;;;;18.37;34.38;95119.47;10435574;28;3197;-53
2022/12/04 02:53:17;;;;;;;;;;;;;;;18.33;34.60;95121.09;10454581;28;3169;-53
2022/12/04 02:58:28;;;;;;;;;;;;;;;18.30;34.55;95117.16;10444408;28;3167;-52
2022/12/04 03:03:29;;;;;;;;;;;;;;;18.32;34.60;95116.91;10427487;28;3114;-54
2022/12/04 03:08:31;;;;;;;;;;;;;;;18.31;34.50;95117.97;10443696;28;3122;-53
2022/12/04 03:13:37;;;;;;;;;;;;;;;18.32;34.47;95119.53;10441160;28;3123;-54
2022/12/04 03:18:45;;;;;;;;;;;;;;;18.35;34.38;95116.34;10440789;28;3199;-54
2022/12/04 03:24:00;;;;;;;;;;;;;;;18.38;34.38;95113.19;10435532;28;3200;-53
2022/12/04 03:29:18;;;;;;;;;;;;;;;18.36;34.35;95118.69;10443481;28;3202;-54
2022/12/04 03:34:26;;;;;;;;;;;;;;;18.38;34.29;95121.06;10431952;28;3193;-52
2022/12/04 03:39:33;;;;;;;;;;;;;;;18.43;34.11;95132.31;10436192;28;2676;-53
2022/12/04 03:44:38;;;;;;;;;;;;;;;18.43;34.23;95121.84;10434078;28;3122;-50
2022/12/04 03:49:47;;;;;;;;;;;;;;;18.47;34.09;95119.44;10429943;28;3127;-53
2022/12/04 03:54:52;;;;;;;;;;;;;;;18.50;34.12;95116.28;10431864;28;2747;-54
2022/12/04 04:00:22;;;;;;;;;;;;;;;18.53;34.08;95107.84;10442096;28;3139;-53
2022/12/04 04:05:23;;;;;;;;;;;;;;;18.60;33.73;95097.81;10428157;28;3158;-54
2022/12/04 04:10:24;;;;;;;;;;;;;;;18.54;34.12;95088.41;10434876;28;3366;-53
2022/12/04 04:26:04;;;;;;;;;;;;;;;18.56;33.76;95091.53;10455677;28;3173;-53
2022/12/04 04:31:04;;;;;;;;;;;;;;;18.59;33.64;95090.97;10408467;28;3138;-51
2022/12/04 04:36:10;;;;;;;;;;;;;;;18.62;33.62;95093.06;10439308;28;2668;-54
2022/12/04 04:41:39;;;;;;;;;;;;;;;18.59;33.58;95101.47;10438464;28;3103;-53
2022/12/04 04:46:40;;;;;;;;;;;;;;;18.61;33.55;95087.03;10393028;28;3260;-52
2022/12/04 04:51:41;;;;;;;;;;;;;;;18.69;33.52;95102.16;10437088;28;3194;-51
2022/12/04 04:56:49;;;;;;;;;;;;;;;18.64;33.53;95086.47;10419077;28;3198;-55
2022/12/04 05:01:49;;;;;;;;;;;;;;;18.62;33.59;95083.34;10438762;28;3166;-52
2022/12/04 05:06:49;;;;;;;;;;;;;;;18.63;33.61;95092.78;10439247;28;3119;-53
2022/12/04 05:11:49;;;;;;;;;;;;;;;18.65;33.54;95095.13;10431633;28;2754;-53
2022/12/04 05:16:50;;;;;;;;;;;;;;;18.68;33.08;95090.13;10431719;28;3202;-51
2022/12/04 05:21:50;;;;;;;;;;;;;;;18.73;33.16;95078.78;10426839;28;2845;-54
2022/12/04 05:26:50;;;;;;;;;;;;;;;18.69;32.52;95078.53;10447311;28;3138;-55
2022/12/04 05:31:51;;;;;;;;;;;;;;;18.73;32.77;95086.66;10440556;28;2813;-54
2022/12/04 05:36:52;;;;;;;;;;;;;;;18.75;32.07;95091.63;10438445;28;3170;-54
2022/12/04 05:41:52;;;;;;;;;;;;;;;18.76;31.99;95096.59;10430465;28;3162;-50
2022/12/04 05:46:52;;;;;;;;;;;;;;;18.78;32.79;95099.72;10431985;28;3150;-55
2022/12/04 05:51:53;;;;;;;;;;;;;;;18.81;31.85;95101.03;10437294;28;3159;-51
2022/12/04 05:56:53;;;;;;;;;;;;;;;18.82;31.77;95087.63;10433717;28;3244;-54
2022/12/04 06:01:53;;;;;;;;;;;;;;;18.85;31.91;95076.56;10430481;28;3237;-53
2022/12/04 06:06:53;;;;;;;;;;;;;;;18.86;31.68;95078.13;10429308;28;3153;-53
2022/12/04 06:11:55;;;;;;;;;;;;;;;18.92;31.90;95077.00;10436913;28;2644;-55
2022/12/04 06:16:56;;;;;;;;;;;;;;;18.93;31.63;95062.03;10437677;28;3165;-55
2022/12/04 06:21:56;;;;;;;;;;;;;;;18.95;31.81;95075.66;10428076;28;2743;-50
2022/12/04 06:26:57;;;;;;;;;;;;;;;18.98;31.87;95096.91;10447377;28;2719;-52
2022/12/04 06:32:07;;;;;;;;;;;;;;;19.01;31.79;95091.09;10440506;28;3229;-55
2022/12/04 06:37:08;;;;;;;;;;;;;;;19.05;32.32;95099.19;10434202;28;2712;-55
2022/12/04 06:42:08;;;;;;;;;;;;;;;19.02;31.75;95089.25;10412053;28;3185;-53
2022/12/04 06:47:17;;;;;;;;;;;;;;;19.08;31.44;95081.03;10421217;28;3268;-54
2022/12/04 06:52:17;;;;;;;;;;;;;;;19.09;31.40;95102.84;10441790;28;3118;-52
2022/12/04 06:57:17;;;;;;;;;;;;;;;19.15;32.56;95081.47;10414615;28;3146;-53
2022/12/04 07:02:17;;;;;;;;;;;;;;;19.13;31.97;95075.72;10430489;28;3318;-55
2022/12/04 07:07:18;;;;;;;;;;;;;;;19.16;31.84;95087.53;10432651;28;3237;-51
2022/12/04 07:12:18;;;;;;;;;;;;;;;19.16;31.64;95093.56;10432027;28;3183;-52
2022/12/04 07:17:18;;;;;;;;;;;;;;;19.18;31.27;95112.47;10428455;28;3102;-53
2022/12/04 07:22:18;;;;;;;;;;;;;;;19.17;31.33;95084.63;10414313;28;2868;-51
2022/12/04 07:27:19;;;;;;;;;;;;;;;19.21;32.00;95090.88;10432239;28;3298;-54
2022/12/04 07:32:21;;;;;;;;;;;;;;;19.22;30.96;95102.97;10431615;28;3260;-51
2022/12/04 07:37:21;;;;;;;;;;;;;;;19.22;31.38;95096.91;10429412;28;3388;-57
2022/12/04 07:42:22;;;;;;;;;;;;;;;19.25;32.08;95104.22;10431614;28;3333;-53
2022/12/04 07:47:22;;;;;;;;;;;;;;;19.29;31.58;95106.03;10433035;28;3237;-54
2022/12/04 07:52:22;;;;;;;;;;;;;;;19.31;31.36;95085.50;10430483;28;2844;-53
2022/12/04 07:57:23;;;;;;;;;;;;;;;19.30;31.15;95086.56;10430764;28;3376;-55
2022/12/04 08:02:23;;;;;;;;;;;;;;;19.35;32.11;95099.66;10434737;28;3357;-50
2022/12/04 08:07:30;;;;;;;;;;;;;;;19.36;31.86;95098.63;10440454;28;3273;-53
2022/12/04 08:12:31;;;;;;;;;;;;;;;19.36;32.45;95088.09;10439916;28;3325;-55
2022/12/04 08:17:32;;;;;;;;;;;;;;;19.38;32.64;95085.97;10438868;28;3356;-51
2022/12/04 08:22:32;;;;;;;;;;;;;;;19.37;32.71;95094.91;10441163;28;3394;-52
2022/12/04 08:27:33;;;;;;;;;;;;;;;19.37;32.50;95094.16;10433244;28;3285;-54
2022/12/04 08:32:33;;;;;;;;;;;;;;;19.30;31.99;95093.66;10433495;28;3297;-54
2022/12/04 08:37:33;;;;;;;;;;;;;;;19.23;32.39;95095.84;10418222;28;3311;-52
2022/12/04 08:42:34;;;;;;;;;;;;;;;19.25;33.01;95093.72;10436551;28;3301;-52
2022/12/04 08:47:34;;;;;;;;;;;;;;;19.28;33.12;95109.72;10435342;28;3289;-52
2022/12/04 08:52:34;;;;;;;;;;;;;;;19.31;33.22;95109.16;10435688;28;3250;-51
2022/12/04 08:57:34;;;;;;;;;;;;;;;19.32;33.13;95108.09;10428305;28;3323;-52
2022/12/04 09:02:35;;;;;;;;;;;;;;;19.32;33.38;95105.47;10427552;28;3240;-52
2022/12/04 09:07:35;;;;;;;;;;;;;;;19.28;33.38;95095.78;10440622;28;2789;-51
2022/12/04 09:12:35;;;;;;;;;;;;;;;19.27;33.47;95099.47;10438201;28;2880;-51
2022/12/04 09:17:36;;;;;;;;;;;;;;;19.26;33.39;95111.84;10432086;28;3297;-50
2022/12/04 09:22:41;;;;;;;;;;;;;;;19.25;33.55;95117.38;10435229;28;3319;-53
2022/12/04 09:27:42;;;;;;;;;;;;;;;19.21;33.31;95117.16;10438270;28;3349;-50
2022/12/04 09:32:42;;;;;;;;;;;;;;;19.16;33.52;95105.91;10430768;28;2856;-53
2022/12/04 09:37:42;;;;;;;;;;;;;;;19.10;33.48;95084.16;10431806;28;3304;-53
2022/12/04 09:42:44;;;;;;;;;;;;;;;19.12;33.42;95068.94;10434617;28;3405;-51
2022/12/04 09:47:49;;;;;;;;;;;;;;;19.06;33.45;95064.75;10434315;28;3296;-50
2022/12/04 09:52:52;;;;;;;;;;;;;;;19.06;33.44;95046.38;10441002;28;3392;-54
2022/12/04 09:57:54;;;;;;;;;;;;;;;19.01;33.47;95075.34;10434408;28;3633;-54
2022/12/04 10:03:00;;;;;;;;;;;;;;;18.95;33.40;95076.47;10436856;28;3294;-51
2022/12/04 10:08:09;;;;;;;;;;;;;;;18.95;33.49;95076.47;10428812;28;3269;-55
2022/12/04 10:13:22;;;;;;;;;;;;;;;18.91;33.67;95046.56;10430054;28;3265;-55
2022/12/04 10:18:41;;;;;;;;;;;;;;;18.89;33.50;95025.06;10431042;28;3345;-50
2022/12/04 10:23:50;;;;;;;;;;;;;;;18.86;33.53;95025.59;10437693;28;3418;-50
2022/12/04 10:28:55;;;;;;;;;;;;;;;18.87;33.52;95027.19;10434413;28;2801;-55
2022/12/04 10:34:06;;;;;;;;;;;;;;;18.86;33.50;95041.34;10426615;28;3324;-52
2022/12/04 10:39:23;;;;;;;;;;;;;;;18.75;33.75;95010.25;10419287;28;3404;-54
2022/12/04 10:44:23;;;;;;;;;;;;;;;18.75;33.77;95003.16;10424745;28;3257;-53
2022/12/04 10:49:24;;;;;;;;;;;;;;;18.73;33.71;95001.88;10427886;28;3276;-50
2022/12/04 10:54:31;;;;;;;;;;;;;;;18.65;33.91;94988.28;10430404;28;3345;-52
2022/12/04 10:59:32;;;;;;;;;;;;;;;18.66;33.82;94984.63;10440610;28;3345;-52
2022/12/04 11:04:32;;;;;;;;;;;;;;;18.64;33.87;94980.69;10432768;28;2928;-53
2022/12/04 11:09:33;;;;;;;;;;;;;;;18.61;33.92;94970.75;10431514;28;3441;-55
2022/12/04 11:14:33;;;;;;;;;;;;;;;18.60;33.90;94979.69;10439845;28;3634;-52
2022/12/04 11:19:35;;;;;;;;;;;;;;;18.56;33.95;94983.94;10433058;28;2879;-54
2022/12/04 11:24:35;;;;;;;;;;;;;;;18.48;34.27;94981.94;10440895;28;2856;-53
2022/12/04 11:29:36;;;;;;;;;;;;;;;18.43;34.04;95014.25;10436565;28;3292;-52
2022/12/04 11:34:37;;;;;;;;;;;;;;;18.44;34.04;95012.41;10457916;28;3442;-51
2022/12/04 11:39:38;;;;;;;;;;;;;;;18.39;34.18;94989.59;10437311;28;2899;-51
2022/12/04 11:44:47;;;;;;;;;;;;;;;18.36;34.14;94995.38;10442773;28;3354;-53
2022/12/04 11:50:10;;;;;;;;;;;;;;;18.37;34.13;94989.09;10433341;28;3292;-52
2022/12/04 11:55:16;;;;;;;;;;;;;;;18.33;34.24;94971.53;10448149;28;3270;-51
2022/12/04 12:00:17;;;;;;;;;;;;;;;18.32;34.24;94983.13;10454207;28;2714;-54
2022/12/04 12:05:18;;;;;;;;;;;;;;;18.30;34.30;94967.63;10423381;28;3394;-52
2022/12/04 12:10:28;;;;;;;;;;;;;;;18.26;34.24;94958.75;10428622;28;3360;-51
2022/12/04 12:15:47;;;;;;;;;;;;;;;18.24;34.33;94933.84;10439138;28;3296;-51
2022/12/04 12:21:00;;;;;;;;;;;;;;;18.21;34.31;94956.19;10431985;28;3249;-50
2022/12/04 12:26:16;;;;;;;;;;;;;;;18.22;34.26;94935.97;10436895;28;3304;-51
2022/12/04 12:31:23;;;;;;;;;;;;;;;18.20;34.27;94941.50;10436619;28;3249;-50
2022/12/04 12:36:24;;;;;;;;;;;;;;;18.17;34.31;94936.03;10436738;28;3324;-54
2022/12/04 12:41:34;;;;;;;;;;;;;;;18.25;34.41;94932.78;10431122;28;3284;-50
2022/12/04 12:46:47;;;;;;;;;;;;;;;18.30;34.45;94933.53;10445618;28;3187;-53
2022/12/04 12:51:55;;;;;;;;;;;;;;;18.29;34.64;94945.09;10419159;28;3246;-61
2022/12/04 12:56:59;;;;;;;;;;;;;;;18.37;34.93;94951.56;10437739;28;2833;-53
2022/12/04 13:02:18;;;;;;;;;;;;;;;18.29;34.84;94934.59;10437194;28;3426;-50
2022/12/04 13:07:24;;;;;;;;;;;;;;;18.23;34.93;94921.81;10442714;28;3300;-50
2022/12/04 13:12:24;;;;;;;;;;;;;;;18.27;35.04;94920.19;10437099;28;3305;-54
2022/12/04 13:17:30;;;;;;;;;;;;;;;18.31;35.59;94910.69;10429789;28;2821;-54
2022/12/04 13:22:45;;;;;;;;;;;;;;;18.36;35.97;94900.91;10434074;28;3348;-57
2022/12/04 13:27:58;;;;;;;;;;;;;;;18.56;36.07;94918.31;10440187;28;3250;-54
2022/12/04 13:33:05;;;;;;;;;;;;;;;18.63;36.38;94916.13;10429063;28;3320;-55
2022/12/04 13:38:18;;;;;;;;;;;;;;;18.74;36.24;94927.28;10438227;28;3308;-57
2022/12/04 13:43:29;;;;;;;;;;;;;;;18.80;36.05;94920.91;10442024;28;3400;-59
2022/12/04 13:48:30;;;;;;;;;;;;;;;18.88;36.22;94928.94;10435283;28;3362;-57
2022/12/04 13:53:31;;;;;;;;;;;;;;;18.92;36.05;94923.94;10438417;28;3233;-55
2022/12/04 13:58:32;;;;;;;;;;;;;;;18.98;35.93;94918.31;10437409;28;3261;-56
2022/12/04 14:03:33;;;;;;;;;;;;;;;19.02;35.96;94921.94;10434742;28;3372;-56
2022/12/04 14:08:42;;;;;;;;;;;;;;;19.08;36.62;94930.53;10441552;28;3238;-56
2022/12/04 14:13:50;;;;;;;;;;;;;;;19.14;36.72;94924.94;10430897;28;3282;-55
2022/12/04 14:18:52;;;;;;;;;;;;;;;19.26;37.66;94909.53;10425184;28;3301;-49
2022/12/04 14:23:52;;;;;;;;;;;;;;;19.31;37.68;94929.66;10431271;28;3269;-51
2022/12/04 14:29:03;;;;;;;;;;;;;;;19.39;37.60;94926.47;10426506;28;3020;-51
2022/12/04 14:34:20;;;;;;;;;;;;;;;19.51;37.53;94926.00;10437874;28;3460;-54
2022/12/04 14:39:37;;;;;;;;;;;;;;;19.64;37.06;94925.28;10441361;28;3269;-55
2022/12/04 14:44:37;;;;;;;;;;;;;;;19.75;35.58;94931.94;10430058;28;3292;-54
2022/12/04 14:49:39;;;;;;;;;;;;;;;19.89;35.59;94924.84;10418047;28;3317;-53
2022/12/04 14:54:40;;;;;;;;;;;;;;;19.97;33.35;94914.47;10462188;28;3476;-52
2022/12/04 14:59:44;;;;;;;;;;;;;;;20.14;35.22;94904.16;10444944;28;3277;-50
2022/12/04 15:04:45;;;;;;;;;;;;;;;20.18;36.65;94907.00;10441134;28;3272;-51
2022/12/04 15:15:12;;;;;;;;;;;;;;;20.21;35.94;94946.72;10440911;28;3365;-53
2022/12/04 15:20:16;;;;;;;;;;;;;;;20.36;35.88;94961.44;10427402;28;3309;-55
2022/12/04 15:25:21;;;;;;;;;;;;;;;20.39;35.98;94950.34;10454450;28;3338;-54
2022/12/04 15:30:21;;;;;;;;;;;;;;;20.47;36.55;94948.88;10454756;28;3322;-53
2022/12/04 15:35:24;;;;;;;;;;;;;;;20.53;35.83;94964.28;10439810;28;3246;-53
2022/12/04 15:40:25;;;;;;;;;;;;;;;20.60;35.77;94979.69;10425358;28;2891;-52
2022/12/04 15:45:27;;;;;;;;;;;;;;;20.72;36.43;94982.63;10442289;28;3293;-52
2022/12/04 15:50:28;;;;;;;;;;;;;;;20.75;36.24;94982.06;10434144;28;3679;-53
2022/12/04 15:55:36;;;;;;;;;;;;;;;20.81;36.40;94989.53;10439483;28;3240;-55
2022/12/04 16:00:37;;;;;;;;;;;;;;;20.87;36.75;94991.03;10441637;28;2796;-52
2022/12/04 16:05:37;;;;;;;;;;;;;;;20.95;36.19;95003.53;10440848;28;3328;-51
2022/12/04 16:10:38;;;;;;;;;;;;;;;21.03;36.37;95008.13;10437357;28;3286;-52
2022/12/04 16:15:39;;;;;;;;;;;;;;;21.08;36.26;95012.53;10438293;28;2804;-49
2022/12/04 16:20:39;;;;;;;;;;;;;;;21.17;37.15;95012.59;10460660;28;3317;-64
2022/12/04 16:25:40;;;;;;;;;;;;;;;21.23;34.85;95008.78;10440549;28;3316;-50
2022/12/04 16:30:40;;;;;;;;;;;;;;;21.22;34.47;95010.66;10439694;28;3293;-53
2022/12/04 16:35:40;;;;;;;;;;;;;;;21.28;35.36;95024.50;10442645;28;3314;-55
2022/12/04 16:40:41;;;;;;;;;;;;;;;21.34;35.67;95012.78;10441172;28;3296;-54
2022/12/04 16:45:51;;;;;;;;;;;;;;;21.40;35.80;95014.22;10438556;28;3293;-52
2022/12/04 16:50:51;;;;;;;;;;;;;;;21.52;36.41;95019.78;10435786;28;3320;-54
2022/12/04 16:55:52;;;;;;;;;;;;;;;21.50;35.40;95016.66;10441911;28;3266;-53
2022/12/04 17:00:53;;;;;;;;;;;;;;;21.58;36.36;95016.72;10438460;28;2984;-51
2022/12/04 17:05:53;;;;;;;;;;;;;;;21.56;36.14;95010.19;10439642;28;3383;-52
2022/12/04 17:10:53;;;;;;;;;;;;;;;21.48;34.09;95014.31;10438077;28;3377;-50
2022/12/04 17:15:54;;;;;;;;;;;;;;;21.44;33.21;95012.56;10449337;28;2867;-50
2022/12/04 17:20:54;;;;;;;;;;;;;;;21.44;33.38;95013.34;10439041;28;3337;-53
2022/12/04 17:25:55;;;;;;;;;;;;;;;21.52;34.78;95017.13;10433669;28;3345;-52
2022/12/04 17:30:56;;;;;;;;;;;;;;;21.44;33.12;95023.91;10444105;28;3189;-54
2022/12/04 17:35:59;;;;;;;;;;;;;;;21.41;32.94;95021.06;10435081;28;3292;-53
2022/12/04 17:40:59;;;;;;;;;;;;;;;21.43;34.02;95016.28;10437223;28;2921;-52
2022/12/04 17:45:59;;;;;;;;;;;;;;;21.42;33.90;95027.91;10433872;28;3247;-54
2022/12/04 17:51:04;;;;;;;;;;;;;;;21.44;33.63;95041.56;10438964;28;2892;-48
2022/12/04 17:56:08;;;;;;;;;;;;;;;21.44;34.08;95039.72;10444610;28;3270;-50
2022/12/04 18:01:12;;;;;;;;;;;;;;;21.43;33.17;95045.28;10430880;28;2993;-50
2022/12/04 18:06:17;;;;;;;;;;;;;;;21.43;33.83;95046.03;10426794;28;3312;-53
2022/12/04 18:11:19;;;;;;;;;;;;;;;21.42;33.51;95043.72;10428397;28;3340;-53
2022/12/04 18:16:19;;;;;;;;;;;;;;;21.41;33.63;95047.44;10430267;28;3290;-50
2022/12/04 18:21:19;;;;;;;;;;;;;;;21.40;33.82;95049.28;10432403;28;3312;-50
2022/12/04 18:26:20;;;;;;;;;;;;;;;21.41;33.80;95060.63;10431198;28;3364;-53
2022/12/04 18:31:21;;;;;;;;;;;;;;;21.39;33.00;95060.91;10425812;28;3313;-53
2022/12/04 18:36:22;;;;;;;;;;;;;;;21.36;32.68;95053.59;10426021;28;3321;-51
2022/12/04 18:41:23;;;;;;;;;;;;;;;21.37;32.86;95057.78;10432872;28;3270;-53
2022/12/04 18:46:23;;;;;;;;;;;;;;;21.37;32.16;95046.47;10430573;28;3320;-50
2022/12/04 18:51:25;;;;;;;;;;;;;;;21.37;32.19;95057.00;10422796;28;3352;-49
2022/12/04 18:56:26;;;;;;;;;;;;;;;21.34;32.17;95047.84;10437660;28;3280;-51
2022/12/04 19:01:26;;;;;;;;;;;;;;;21.36;32.38;95055.44;10435322;28;3229;-54
2022/12/04 19:06:30;;;;;;;;;;;;;;;21.43;34.42;95058.47;10428222;28;3356;-54
2022/12/04 19:11:34;;;;;;;;;;;;;;;21.55;34.93;95058.75;10433569;28;3401;-52
2022/12/04 19:16:34;;;;;;;;;;;;;;;21.59;35.89;95071.06;10431326;28;3325;-53
2022/12/04 19:21:34;;;;;;;;;;;;;;;21.62;35.97;95075.72;10434214;28;2875;-52
2022/12/04 19:26:35;;;;;;;;;;;;;;;21.62;36.09;95064.38;10429996;28;3356;-52
2022/12/04 19:31:35;;;;;;;;;;;;;;;21.62;36.30;95074.94;10433595;28;3389;-52
2022/12/04 19:36:35;;;;;;;;;;;;;;;21.57;36.76;95082.97;10435886;28;2900;-56
2022/12/04 19:41:37;;;;;;;;;;;;;;;21.64;37.20;95085.97;10444202;28;2860;-54
2022/12/04 19:46:38;;;;;;;;;;;;;;;21.62;36.75;95096.03;10444940;28;3226;-54
2022/12/04 19:51:38;;;;;;;;;;;;;;;21.57;36.53;95109.34;10442022;28;2853;-52
2022/12/04 19:56:39;;;;;;;;;;;;;;;21.46;37.08;95123.78;10440862;28;2801;-51
2022/12/04 20:01:46;;;;;;;;;;;;;;;21.46;35.87;95126.41;10444826;28;3260;-51
2022/12/04 20:06:47;;;;;;;;;;;;;;;21.46;36.01;95126.41;10431834;28;3442;-53
2022/12/04 20:11:47;;;;;;;;;;;;;;;21.48;36.00;95138.25;10447696;28;2840;-54
2022/12/04 20:16:47;;;;;;;;;;;;;;;21.47;35.73;95146.47;10448852;28;3364;-54
2022/12/04 20:21:48;;;;;;;;;;;;;;;21.47;35.75;95157.00;10446052;28;3251;-55
2022/12/04 20:26:48;;;;;;;;;;;;;;;21.47;36.05;95162.28;10444923;28;3576;-54
2022/12/04 20:31:49;;;;;;;;;;;;;;;21.44;35.74;95168.91;10449799;28;3385;-53
2022/12/04 20:36:49;;;;;;;;;;;;;;;21.43;35.63;95174.50;10445900;28;2928;-55
2022/12/04 20:41:50;;;;;;;;;;;;;;;21.41;35.67;95179.28;10465226;28;3303;-55
2022/12/04 20:46:54;;;;;;;;;;;;;;;21.37;35.53;95173.03;10462869;28;3672;-53
2022/12/04 20:51:54;;;;;;;;;;;;;;;21.38;35.86;95174.56;10446013;28;3340;-55
2022/12/04 20:56:55;;;;;;;;;;;;;;;21.34;35.91;95179.66;10447869;28;3305;-54
2022/12/04 21:01:56;;;;;;;;;;;;;;;21.32;35.93;95189.72;10445542;28;3391;-55
2022/12/04 21:06:57;;;;;;;;;;;;;;;21.30;35.60;95196.34;10446962;28;3285;-54
2022/12/04 21:11:57;;;;;;;;;;;;;;;21.26;35.97;95184.81;10425087;28;3318;-51
2022/12/04 21:16:58;;;;;;;;;;;;;;;21.24;36.13;95179.06;10447421;28;2860;-52
2022/12/04 21:22:00;;;;;;;;;;;;;;;21.22;35.92;95181.19;10443192;28;3413;-51
2022/12/04 21:27:01;;;;;;;;;;;;;;;21.20;36.26;95180.69;10444873;28;3321;-54
2022/12/04 21:32:01;;;;;;;;;;;;;;;21.16;35.99;95185.00;10440167;28;3386;-54
2022/12/04 21:37:01;;;;;;;;;;;;;;;21.13;36.74;95188.97;10432899;28;2978;-52
2022/12/04 21:47:21;;;;;;;;;;;;;;;21.04;36.16;95186.22;10428628;28;3257;-55
2022/12/04 21:52:21;;;;;;;;;;;;;;;20.99;36.09;95188.94;10436308;28;3377;-55
2022/12/04 21:57:21;;;;;;;;;;;;;;;20.96;36.40;95186.88;10436103;28;3246;-55
2022/12/04 22:02:21;;;;;;;;;;;;;;;20.93;36.36;95187.47;10436156;28;3308;-53
2022/12/04 22:07:22;;;;;;;;;;;;;;;20.89;35.67;95189.09;10436709;28;2943;-53
2022/12/04 22:12:22;;;;;;;;;;;;;;;20.86;36.15;95202.84;10434485;28;3254;-55
2022/12/04 22:17:23;;;;;;;;;;;;;;;20.81;36.27;95210.81;10433713;28;2849;-53
2022/12/04 22:22:23;;;;;;;;;;;;;;;20.79;35.29;95222.72;10439299;28;3325;-54
2022/12/04 22:27:23;;;;;;;;;;;;;;;20.74;35.69;95234.13;10432940;28;3257;-48
2022/12/04 22:32:23;;;;;;;;;;;;;;;20.71;35.60;95234.69;10430549;28;3308;-55
2022/12/04 22:37:24;;;;;;;;;;;;;;;20.68;35.90;95242.38;10428379;28;3391;-53
2022/12/04 22:42:24;;;;;;;;;;;;;;;20.64;35.70;95251.91;10415593;28;3332;-54
2022/12/04 22:47:24;;;;;;;;;;;;;;;20.61;35.57;95253.25;10433194;28;3324;-52
2022/12/04 22:52:25;;;;;;;;;;;;;;;20.59;35.85;95246.72;10432515;28;2867;-54
2022/12/04 22:57:26;;;;;;;;;;;;;;;20.56;35.57;95263.09;10420813;28;2876;-51
2022/12/04 23:02:26;;;;;;;;;;;;;;;20.53;35.52;95256.53;10435493;28;3258;-54
2022/12/04 23:07:27;;;;;;;;;;;;;;;20.49;35.59;95252.13;10429760;28;3526;-55
2022/12/04 23:12:28;;;;;;;;;;;;;;;20.49;35.83;95257.38;10442817;28;3352;-53
2022/12/04 23:17:29;;;;;;;;;;;;;;;20.47;36.16;95262.94;10443607;28;3381;-50
2022/12/04 23:22:29;;;;;;;;;;;;;;;20.45;35.80;95241.38;10428373;28;3241;-53
2022/12/04 23:27:30;;;;;;;;;;;;;;;20.42;35.57;95241.97;10439718;28;2863;-53
2022/12/04 23:32:30;;;;;;;;;;;;;;;20.40;35.73;95249.38;10441117;28;3268;-55
2022/12/04 23:37:30;;;;;;;;;;;;;;;20.38;36.17;95266.50;10440152;28;3238;-54
2022/12/04 23:42:31;;;;;;;;;;;;;;;20.34;36.27;95263.63;10444650;28;3300;-52
2022/12/04 23:47:31;;;;;;;;;;;;;;;20.32;36.39;95278.16;10441395;28;3230;-55
2022/12/04 23:52:32;;;;;;;;;;;;;;;20.30;36.15;95273.16;10447143;28;3234;-54
2022/12/04 23:57:32;;;;;;;;;;;;;;;20.24;36.38;95287.44;10433372;28;3448;-54
